sensor_id;sensor_type;location;lat;lon;timestamp;temperature;humidity
74420;DHT22;62855;50.718;-2.460;2023-04-29T00:02:05;49.46;78.00
74420;DHT22;62855;50.718;-2.460;2023-04-29T00:05:07;49.28;78.00
74420;DHT22;62855;50.718;-2.460;2023-04-29T00:08:06;49.28;78.00
74420;DHT22;62855;50.718;-2.460;2023-04-29T00:11:06;49.28;78.00
74420;DHT22;62855;50.718;-2.460;2023-04-29T00:14:06;49.28;78.00
74420;DHT22;62855;50.718;-2.460;2023-04-29T00:17:06;49.10;78.00
74420;DHT22;62855;50.718;-2.460;2023-04-29T00:20:07;49.10;78.00
74420;DHT22;62855;50.718;-2.460;2023-04-29T00:23:06;48.92;78.00
74420;DHT22;62855;50.718;-2.460;2023-04-29T00:26:06;48.92;78.00
74420;DHT22;62855;50.718;-2.460;2023-04-29T00:29:06;48.92;78.00
74420;DHT22;62855;50.718;-2.460;2023-04-29T00:32:05;48.74;79.00
74420;DHT22;62855;50.718;-2.460;2023-04-29T00:35:06;48.74;79.00
74420;DHT22;62855;50.718;-2.460;2023-04-29T00:38:06;48.56;79.00
74420;DHT22;62855;50.718;-2.460;2023-04-29T00:41:06;48.56;79.00
74420;DHT22;62855;50.718;-2.460;2023-04-29T00:44:06;48.56;79.00
74420;DHT22;62855;50.718;-2.460;2023-04-29T00:47:06;48.56;79.00
74420;DHT22;62855;50.718;-2.460;2023-04-29T00:50:07;48.56;79.00
74420;DHT22;62855;50.718;-2.460;2023-04-29T00:53:06;48.56;79.00
74420;DHT22;62855;50.718;-2.460;2023-04-29T00:56:06;48.56;80.00
74420;DHT22;62855;50.718;-2.460;2023-04-29T00:59:06;48.56;80.00
74420;DHT22;62855;50.718;-2.460;2023-04-29T01:02:06;48.56;80.00
74420;DHT22;62855;50.718;-2.460;2023-04-29T01:05:06;48.38;80.00
74420;DHT22;62855;50.718;-2.460;2023-04-29T01:08:18;48.38;80.00
74420;DHT22;62855;50.718;-2.460;2023-04-29T01:11:08;48.20;80.00
74420;DHT22;62855;50.718;-2.460;2023-04-29T01:14:06;48.20;80.00
74420;DHT22;62855;50.718;-2.460;2023-04-29T01:17:10;48.20;80.00
74420;DHT22;62855;50.718;-2.460;2023-04-29T01:20:08;48.02;80.00
74420;DHT22;62855;50.718;-2.460;2023-04-29T01:23:06;48.02;80.00
74420;DHT22;62855;50.718;-2.460;2023-04-29T01:26:05;48.02;80.00
74420;DHT22;62855;50.718;-2.460;2023-04-29T01:29:21;47.84;80.00
74420;DHT22;62855;50.718;-2.460;2023-04-29T01:32:12;47.84;80.00
74420;DHT22;62855;50.718;-2.460;2023-04-29T01:35:14;47.84;80.00
74420;DHT22;62855;50.718;-2.460;2023-04-29T01:38:15;47.66;80.00
74420;DHT22;62855;50.718;-2.460;2023-04-29T01:41:10;47.66;80.00
74420;DHT22;62855;50.718;-2.460;2023-04-29T01:44:07;47.48;80.00
74420;DHT22;62855;50.718;-2.460;2023-04-29T01:47:07;47.48;80.00
74420;DHT22;62855;50.718;-2.460;2023-04-29T01:50:06;47.48;80.00
74420;DHT22;62855;50.718;-2.460;2023-04-29T01:53:06;47.48;80.00
74420;DHT22;62855;50.718;-2.460;2023-04-29T01:56:07;47.48;80.00
74420;DHT22;62855;50.718;-2.460;2023-04-29T01:59:06;47.48;80.00
74420;DHT22;62855;50.718;-2.460;2023-04-29T02:02:05;47.48;80.00
74420;DHT22;62855;50.718;-2.460;2023-04-29T02:05:07;47.30;80.00
74420;DHT22;62855;50.718;-2.460;2023-04-29T02:08:06;47.30;80.00
74420;DHT22;62855;50.718;-2.460;2023-04-29T02:11:06;47.30;80.00
74420;DHT22;62855;50.718;-2.460;2023-04-29T02:14:05;47.30;80.00
74420;DHT22;62855;50.718;-2.460;2023-04-29T02:17:05;47.12;80.00
74420;DHT22;62855;50.718;-2.460;2023-04-29T02:20:07;47.12;80.00
74420;DHT22;62855;50.718;-2.460;2023-04-29T02:23:06;47.12;80.00
74420;DHT22;62855;50.718;-2.460;2023-04-29T02:26:06;47.12;80.00
74420;DHT22;62855;50.718;-2.460;2023-04-29T02:29:06;47.12;80.00
74420;DHT22;62855;50.718;-2.460;2023-04-29T02:32:06;47.12;80.00
74420;DHT22;62855;50.718;-2.460;2023-04-29T02:35:06;47.12;80.00
74420;DHT22;62855;50.718;-2.460;2023-04-29T02:38:06;47.12;80.00
74420;DHT22;62855;50.718;-2.460;2023-04-29T02:41:05;47.12;81.00
74420;DHT22;62855;50.718;-2.460;2023-04-29T02:44:05;47.12;81.00
74420;DHT22;62855;50.718;-2.460;2023-04-29T02:47:06;47.12;81.00
74420;DHT22;62855;50.718;-2.460;2023-04-29T02:50:07;47.12;81.00
74420;DHT22;62855;50.718;-2.460;2023-04-29T02:55:06;47.12;81.00
74420;DHT22;62855;50.718;-2.460;2023-04-29T02:58:06;47.12;81.00
74420;DHT22;62855;50.718;-2.460;2023-04-29T03:01:06;47.12;81.00
74420;DHT22;62855;50.718;-2.460;2023-04-29T03:04:06;47.12;81.00
74420;DHT22;62855;50.718;-2.460;2023-04-29T03:07:06;47.12;81.00
74420;DHT22;62855;50.718;-2.460;2023-04-29T03:10:06;47.30;81.00
74420;DHT22;62855;50.718;-2.460;2023-04-29T03:13:06;47.30;81.00
74420;DHT22;62855;50.718;-2.460;2023-04-29T03:16:06;47.30;81.00
74420;DHT22;62855;50.718;-2.460;2023-04-29T03:19:06;47.48;81.00
74420;DHT22;62855;50.718;-2.460;2023-04-29T03:22:06;47.48;82.00
74420;DHT22;62855;50.718;-2.460;2023-04-29T03:25:06;47.48;82.00
74420;DHT22;62855;50.718;-2.460;2023-04-29T03:28:06;47.66;82.00
74420;DHT22;62855;50.718;-2.460;2023-04-29T03:31:06;47.66;82.00
74420;DHT22;62855;50.718;-2.460;2023-04-29T03:34:06;47.66;82.00
74420;DHT22;62855;50.718;-2.460;2023-04-29T03:37:06;47.84;82.00
74420;DHT22;62855;50.718;-2.460;2023-04-29T03:40:07;47.84;82.00
74420;DHT22;62855;50.718;-2.460;2023-04-29T03:43:06;47.84;82.00
74420;DHT22;62855;50.718;-2.460;2023-04-29T03:46:06;47.84;82.00
74420;DHT22;62855;50.718;-2.460;2023-04-29T03:49:05;47.84;82.00
74420;DHT22;62855;50.718;-2.460;2023-04-29T03:52:05;47.84;82.00
74420;DHT22;62855;50.718;-2.460;2023-04-29T03:55:06;48.02;82.00
74420;DHT22;62855;50.718;-2.460;2023-04-29T03:58:06;48.02;82.00
74420;DHT22;62855;50.718;-2.460;2023-04-29T04:01:06;48.02;83.00
74420;DHT22;62855;50.718;-2.460;2023-04-29T04:04:05;48.02;83.00
74420;DHT22;62855;50.718;-2.460;2023-04-29T04:07:05;48.02;83.00
74420;DHT22;62855;50.718;-2.460;2023-04-29T04:10:06;48.02;83.00
74420;DHT22;62855;50.718;-2.460;2023-04-29T04:13:06;48.02;83.00
74420;DHT22;62855;50.718;-2.460;2023-04-29T04:16:06;48.02;83.00
74420;DHT22;62855;50.718;-2.460;2023-04-29T04:19:05;48.02;83.00
74420;DHT22;62855;50.718;-2.460;2023-04-29T04:22:06;48.02;83.00
74420;DHT22;62855;50.718;-2.460;2023-04-29T04:25:07;48.02;83.00
74420;DHT22;62855;50.718;-2.460;2023-04-29T04:28:06;48.02;83.00
74420;DHT22;62855;50.718;-2.460;2023-04-29T04:31:05;48.02;83.00
74420;DHT22;62855;50.718;-2.460;2023-04-29T04:34:05;48.02;83.00
74420;DHT22;62855;50.718;-2.460;2023-04-29T04:37:06;48.02;83.00
74420;DHT22;62855;50.718;-2.460;2023-04-29T04:40:07;48.02;83.00
74420;DHT22;62855;50.718;-2.460;2023-04-29T04:43:06;48.02;83.00
74420;DHT22;62855;50.718;-2.460;2023-04-29T04:46:09;48.02;83.00
74420;DHT22;62855;50.718;-2.460;2023-04-29T04:49:06;48.02;83.00
74420;DHT22;62855;50.718;-2.460;2023-04-29T04:52:06;48.02;83.00
74420;DHT22;62855;50.718;-2.460;2023-04-29T04:55:07;48.02;83.00
74420;DHT22;62855;50.718;-2.460;2023-04-29T04:58:05;48.02;83.00
74420;DHT22;62855;50.718;-2.460;2023-04-29T05:01:06;48.02;83.00
74420;DHT22;62855;50.718;-2.460;2023-04-29T05:04:06;48.02;83.00
74420;DHT22;62855;50.718;-2.460;2023-04-29T05:07:06;48.02;83.00
74420;DHT22;62855;50.718;-2.460;2023-04-29T05:10:07;47.84;93.00
74420;DHT22;62855;50.718;-2.460;2023-04-29T05:13:05;47.84;93.00
74420;DHT22;62855;50.718;-2.460;2023-04-29T05:16:06;47.84;93.00
74420;DHT22;62855;50.718;-2.460;2023-04-29T05:19:06;47.66;93.00
74420;DHT22;62855;50.718;-2.460;2023-04-29T05:22:06;47.66;93.00
74420;DHT22;62855;50.718;-2.460;2023-04-29T05:25:07;47.66;93.00
74420;DHT22;62855;50.718;-2.460;2023-04-29T05:28:06;47.66;93.00
74420;DHT22;62855;50.718;-2.460;2023-04-29T05:31:06;47.84;93.00
74420;DHT22;62855;50.718;-2.460;2023-04-29T05:34:06;47.84;93.00
74420;DHT22;62855;50.718;-2.460;2023-04-29T05:37:06;47.84;93.00
74420;DHT22;62855;50.718;-2.460;2023-04-29T05:40:06;47.84;93.00
74420;DHT22;62855;50.718;-2.460;2023-04-29T05:43:06;47.84;93.00
74420;DHT22;62855;50.718;-2.460;2023-04-29T05:46:06;47.84;93.00
74420;DHT22;62855;50.718;-2.460;2023-04-29T05:49:06;47.84;93.00
74420;DHT22;62855;50.718;-2.460;2023-04-29T05:52:06;47.84;94.00
74420;DHT22;62855;50.718;-2.460;2023-04-29T05:55:06;47.84;94.00
74420;DHT22;62855;50.718;-2.460;2023-04-29T05:58:06;47.84;94.00
74420;DHT22;62855;50.718;-2.460;2023-04-29T06:01:06;47.84;94.00
74420;DHT22;62855;50.718;-2.460;2023-04-29T06:04:05;47.84;94.00
74420;DHT22;62855;50.718;-2.460;2023-04-29T06:07:06;48.02;94.00
74420;DHT22;62855;50.718;-2.460;2023-04-29T06:10:07;48.20;94.00
74420;DHT22;62855;50.718;-2.460;2023-04-29T06:13:06;48.20;94.00
74420;DHT22;62855;50.718;-2.460;2023-04-29T06:16:06;48.38;94.00
74420;DHT22;62855;50.718;-2.460;2023-04-29T06:19:06;48.38;94.00
74420;DHT22;62855;50.718;-2.460;2023-04-29T06:22:05;48.56;94.00
74420;DHT22;62855;50.718;-2.460;2023-04-29T06:25:06;48.56;94.00
74420;DHT22;62855;50.718;-2.460;2023-04-29T06:28:06;48.74;95.00
74420;DHT22;62855;50.718;-2.460;2023-04-29T06:31:06;48.92;95.00
74420;DHT22;62855;50.718;-2.460;2023-04-29T06:34:05;48.92;95.00
74420;DHT22;62855;50.718;-2.460;2023-04-29T06:37:05;49.10;95.00
74420;DHT22;62855;50.718;-2.460;2023-04-29T06:40:07;49.10;95.00
74420;DHT22;62855;50.718;-2.460;2023-04-29T06:43:06;49.10;95.00
74420;DHT22;62855;50.718;-2.460;2023-04-29T06:46:06;49.10;95.00
74420;DHT22;62855;50.718;-2.460;2023-04-29T06:49:06;49.10;95.00
74420;DHT22;62855;50.718;-2.460;2023-04-29T06:52:06;49.10;95.00
74420;DHT22;62855;50.718;-2.460;2023-04-29T06:55:07;49.10;95.00
74420;DHT22;62855;50.718;-2.460;2023-04-29T06:58:06;49.28;95.00
74420;DHT22;62855;50.718;-2.460;2023-04-29T07:01:06;49.46;95.00
74420;DHT22;62855;50.718;-2.460;2023-04-29T07:04:05;49.64;95.00
74420;DHT22;62855;50.718;-2.460;2023-04-29T07:07:06;49.64;95.00
74420;DHT22;62855;50.718;-2.460;2023-04-29T07:10:06;49.82;95.00
74420;DHT22;62855;50.718;-2.460;2023-04-29T07:13:06;49.82;95.00
74420;DHT22;62855;50.718;-2.460;2023-04-29T07:16:13;49.82;95.00
74420;DHT22;62855;50.718;-2.460;2023-04-29T07:19:06;49.82;95.00
74420;DHT22;62855;50.718;-2.460;2023-04-29T07:22:06;50.18;95.00
74420;DHT22;62855;50.718;-2.460;2023-04-29T07:25:07;50.36;96.00
74420;DHT22;62855;50.718;-2.460;2023-04-29T07:28:06;50.54;96.00
74420;DHT22;62855;50.718;-2.460;2023-04-29T07:31:05;50.72;96.00
74420;DHT22;62855;50.718;-2.460;2023-04-29T07:34:06;51.08;96.00
74420;DHT22;62855;50.718;-2.460;2023-04-29T07:37:06;51.62;96.00
74420;DHT22;62855;50.718;-2.460;2023-04-29T07:40:07;51.80;96.00
74420;DHT22;62855;50.718;-2.460;2023-04-29T07:43:06;52.16;96.00
74420;DHT22;62855;50.718;-2.460;2023-04-29T07:46:06;52.34;96.00
74420;DHT22;62855;50.718;-2.460;2023-04-29T07:49:06;52.52;96.00
74420;DHT22;62855;50.718;-2.460;2023-04-29T07:52:06;52.88;96.00
74420;DHT22;62855;50.718;-2.460;2023-04-29T07:55:07;53.06;96.00
74420;DHT22;62855;50.718;-2.460;2023-04-29T07:58:05;53.06;96.00
74420;DHT22;62855;50.718;-2.460;2023-04-29T08:01:06;53.06;96.00
74420;DHT22;62855;50.718;-2.460;2023-04-29T08:04:06;53.24;95.00
74420;DHT22;62855;50.718;-2.460;2023-04-29T08:07:06;53.06;95.00
74420;DHT22;62855;50.718;-2.460;2023-04-29T08:10:06;53.06;94.00
74420;DHT22;62855;50.718;-2.460;2023-04-29T08:13:06;53.06;93.00
74420;DHT22;62855;50.718;-2.460;2023-04-29T08:16:06;53.06;92.00
74420;DHT22;62855;50.718;-2.460;2023-04-29T08:19:06;53.06;91.00
74420;DHT22;62855;50.718;-2.460;2023-04-29T08:22:06;53.24;91.00
74420;DHT22;62855;50.718;-2.460;2023-04-29T08:25:06;53.24;90.00
74420;DHT22;62855;50.718;-2.460;2023-04-29T08:28:06;53.60;85.00
74420;DHT22;62855;50.718;-2.460;2023-04-29T08:31:06;53.96;84.00
74420;DHT22;62855;50.718;-2.460;2023-04-29T08:34:06;54.50;83.00
74420;DHT22;62855;50.718;-2.460;2023-04-29T08:37:06;54.68;82.00
74420;DHT22;62855;50.718;-2.460;2023-04-29T08:40:07;55.04;81.00
74420;DHT22;62855;50.718;-2.460;2023-04-29T08:43:07;55.04;80.00
74420;DHT22;62855;50.718;-2.460;2023-04-29T08:46:06;55.22;78.00
74420;DHT22;62855;50.718;-2.460;2023-04-29T08:49:06;55.40;77.00
74420;DHT22;62855;50.718;-2.460;2023-04-29T08:52:05;55.40;76.00
74420;DHT22;62855;50.718;-2.460;2023-04-29T08:55:07;55.58;75.00
74420;DHT22;62855;50.718;-2.460;2023-04-29T08:58:06;55.04;73.00
74420;DHT22;62855;50.718;-2.460;2023-04-29T09:01:07;55.22;72.00
74420;DHT22;62855;50.718;-2.460;2023-04-29T09:04:11;55.76;72.00
74420;DHT22;62855;50.718;-2.460;2023-04-29T09:07:06;56.12;72.00
74420;DHT22;62855;50.718;-2.460;2023-04-29T09:10:07;56.66;72.00
74420;DHT22;62855;50.718;-2.460;2023-04-29T09:13:06;57.02;72.00
74420;DHT22;62855;50.718;-2.460;2023-04-29T09:16:10;57.56;71.00
74420;DHT22;62855;50.718;-2.460;2023-04-29T09:19:05;57.56;70.00
74420;DHT22;62855;50.718;-2.460;2023-04-29T09:22:05;57.56;70.00
74420;DHT22;62855;50.718;-2.460;2023-04-29T09:25:14;57.38;68.00
74420;DHT22;62855;50.718;-2.460;2023-04-29T09:28:14;57.56;68.00
74420;DHT22;62855;50.718;-2.460;2023-04-29T09:31:05;57.92;69.00
74420;DHT22;62855;50.718;-2.460;2023-04-29T09:34:05;58.28;68.00
74420;DHT22;62855;50.718;-2.460;2023-04-29T09:37:22;58.64;68.00
74420;DHT22;62855;50.718;-2.460;2023-04-29T09:40:07;58.64;66.00
74420;DHT22;62855;50.718;-2.460;2023-04-29T09:43:12;58.46;65.00
74420;DHT22;62855;50.718;-2.460;2023-04-29T09:46:11;58.46;65.00
74420;DHT22;62855;50.718;-2.460;2023-04-29T09:49:23;58.46;65.00
74420;DHT22;62855;50.718;-2.460;2023-04-29T09:52:07;58.64;66.00
74420;DHT22;62855;50.718;-2.460;2023-04-29T09:55:07;58.46;64.00
74420;DHT22;62855;50.718;-2.460;2023-04-29T09:58:06;58.46;65.00
74420;DHT22;62855;50.718;-2.460;2023-04-29T10:01:06;58.46;64.00
74420;DHT22;62855;50.718;-2.460;2023-04-29T10:04:07;58.64;65.00
74420;DHT22;62855;50.718;-2.460;2023-04-29T10:07:07;58.64;64.00
74420;DHT22;62855;50.718;-2.460;2023-04-29T10:10:07;58.82;64.00
74420;DHT22;62855;50.718;-2.460;2023-04-29T10:13:05;59.18;63.00
74420;DHT22;62855;50.718;-2.460;2023-04-29T10:16:12;59.36;63.00
74420;DHT22;62855;50.718;-2.460;2023-04-29T10:19:09;59.54;62.00
74420;DHT22;62855;50.718;-2.460;2023-04-29T10:22:08;59.72;62.00
74420;DHT22;62855;50.718;-2.460;2023-04-29T10:25:09;60.08;62.00
74420;DHT22;62855;50.718;-2.460;2023-04-29T10:28:08;60.26;62.00
74420;DHT22;62855;50.718;-2.460;2023-04-29T10:31:06;60.44;62.00
74420;DHT22;62855;50.718;-2.460;2023-04-29T10:34:06;60.44;61.00
74420;DHT22;62855;50.718;-2.460;2023-04-29T10:37:07;60.26;60.00
74420;DHT22;62855;50.718;-2.460;2023-04-29T10:40:11;60.26;61.00
74420;DHT22;62855;50.718;-2.460;2023-04-29T10:43:06;60.44;61.00
74420;DHT22;62855;50.718;-2.460;2023-04-29T10:46:17;60.44;61.00
74420;DHT22;62855;50.718;-2.460;2023-04-29T10:49:06;60.44;61.00
74420;DHT22;62855;50.718;-2.460;2023-04-29T10:52:06;60.44;61.00
74420;DHT22;62855;50.718;-2.460;2023-04-29T10:55:06;60.44;61.00
74420;DHT22;62855;50.718;-2.460;2023-04-29T11:01:07;60.80;61.00
74420;DHT22;62855;50.718;-2.460;2023-04-29T11:04:06;60.62;60.00
74420;DHT22;62855;50.718;-2.460;2023-04-29T11:07:06;60.80;61.00
74420;DHT22;62855;50.718;-2.460;2023-04-29T11:11:05;61.16;61.00
74420;DHT22;62855;50.718;-2.460;2023-04-29T11:14:07;61.16;60.00
74420;DHT22;62855;50.718;-2.460;2023-04-29T11:17:08;61.16;60.00
74420;DHT22;62855;50.718;-2.460;2023-04-29T11:20:12;60.98;60.00
74420;DHT22;62855;50.718;-2.460;2023-04-29T11:23:06;60.80;60.00
74420;DHT22;62855;50.718;-2.460;2023-04-29T11:26:06;60.62;60.00
74420;DHT22;62855;50.718;-2.460;2023-04-29T11:29:07;60.62;60.00
74420;DHT22;62855;50.718;-2.460;2023-04-29T11:32:06;60.80;60.00
74420;DHT22;62855;50.718;-2.460;2023-04-29T11:35:07;60.98;60.00
74420;DHT22;62855;50.718;-2.460;2023-04-29T11:38:06;60.98;60.00
74420;DHT22;62855;50.718;-2.460;2023-04-29T11:41:06;60.98;60.00
74420;DHT22;62855;50.718;-2.460;2023-04-29T11:44:06;61.16;60.00
74420;DHT22;62855;50.718;-2.460;2023-04-29T11:47:06;61.34;60.00
74420;DHT22;62855;50.718;-2.460;2023-04-29T11:50:07;61.16;59.00
74420;DHT22;62855;50.718;-2.460;2023-04-29T11:53:06;61.16;60.00
74420;DHT22;62855;50.718;-2.460;2023-04-29T11:56:07;61.34;60.00
74420;DHT22;62855;50.718;-2.460;2023-04-29T11:59:05;61.34;60.00
74420;DHT22;62855;50.718;-2.460;2023-04-29T12:02:10;61.52;60.00
74420;DHT22;62855;50.718;-2.460;2023-04-29T12:05:07;61.52;59.00
74420;DHT22;62855;50.718;-2.460;2023-04-29T12:08:06;61.70;60.00
74420;DHT22;62855;50.718;-2.460;2023-04-29T12:11:06;61.70;59.00
74420;DHT22;62855;50.718;-2.460;2023-04-29T12:14:05;61.52;58.00
74420;DHT22;62855;50.718;-2.460;2023-04-29T12:17:06;61.34;57.00
74420;DHT22;62855;50.718;-2.460;2023-04-29T12:20:07;61.16;57.00
74420;DHT22;62855;50.718;-2.460;2023-04-29T12:23:11;60.98;57.00
74420;DHT22;62855;50.718;-2.460;2023-04-29T12:26:05;61.16;59.00
74420;DHT22;62855;50.718;-2.460;2023-04-29T12:29:09;61.34;59.00
74420;DHT22;62855;50.718;-2.460;2023-04-29T12:32:06;61.34;59.00
74420;DHT22;62855;50.718;-2.460;2023-04-29T12:35:13;61.52;59.00
74420;DHT22;62855;50.718;-2.460;2023-04-29T12:38:06;61.52;57.00
74420;DHT22;62855;50.718;-2.460;2023-04-29T12:41:05;61.52;58.00
74420;DHT22;62855;50.718;-2.460;2023-04-29T12:44:06;61.88;58.00
74420;DHT22;62855;50.718;-2.460;2023-04-29T12:47:07;61.88;57.00
74420;DHT22;62855;50.718;-2.460;2023-04-29T12:50:07;61.88;58.00
74420;DHT22;62855;50.718;-2.460;2023-04-29T12:53:07;61.88;59.00
74420;DHT22;62855;50.718;-2.460;2023-04-29T12:56:06;61.88;59.00
74420;DHT22;62855;50.718;-2.460;2023-04-29T12:59:07;62.06;59.00
74420;DHT22;62855;50.718;-2.460;2023-04-29T13:02:06;62.06;56.00
74420;DHT22;62855;50.718;-2.460;2023-04-29T13:05:07;61.88;57.00
74420;DHT22;62855;50.718;-2.460;2023-04-29T13:08:05;61.70;58.00
74420;DHT22;62855;50.718;-2.460;2023-04-29T13:11:06;61.52;57.00
74420;DHT22;62855;50.718;-2.460;2023-04-29T13:14:06;61.70;59.00
74420;DHT22;62855;50.718;-2.460;2023-04-29T13:17:06;62.06;60.00
74420;DHT22;62855;50.718;-2.460;2023-04-29T13:20:07;61.70;56.00
74420;DHT22;62855;50.718;-2.460;2023-04-29T13:23:05;61.70;59.00
74420;DHT22;62855;50.718;-2.460;2023-04-29T13:26:06;61.88;59.00
74420;DHT22;62855;50.718;-2.460;2023-04-29T13:29:06;62.06;59.00
74420;DHT22;62855;50.718;-2.460;2023-04-29T13:32:06;61.88;59.00
74420;DHT22;62855;50.718;-2.460;2023-04-29T13:35:07;61.88;59.00
74420;DHT22;62855;50.718;-2.460;2023-04-29T13:38:06;61.70;59.00
74420;DHT22;62855;50.718;-2.460;2023-04-29T13:41:06;61.34;58.00
74420;DHT22;62855;50.718;-2.460;2023-04-29T13:44:06;61.16;58.00
74420;DHT22;62855;50.718;-2.460;2023-04-29T13:47:06;61.16;59.00
74420;DHT22;62855;50.718;-2.460;2023-04-29T13:50:06;60.98;59.00
74420;DHT22;62855;50.718;-2.460;2023-04-29T13:53:06;60.98;60.00
74420;DHT22;62855;50.718;-2.460;2023-04-29T13:56:06;60.98;60.00
74420;DHT22;62855;50.718;-2.460;2023-04-29T13:59:06;60.98;60.00
74420;DHT22;62855;50.718;-2.460;2023-04-29T14:02:05;60.98;60.00
74420;DHT22;62855;50.718;-2.460;2023-04-29T14:05:06;60.98;60.00
74420;DHT22;62855;50.718;-2.460;2023-04-29T14:08:06;60.98;60.00
74420;DHT22;62855;50.718;-2.460;2023-04-29T14:11:06;60.98;60.00
74420;DHT22;62855;50.718;-2.460;2023-04-29T14:14:06;60.98;60.00
74420;DHT22;62855;50.718;-2.460;2023-04-29T14:17:05;60.98;60.00
74420;DHT22;62855;50.718;-2.460;2023-04-29T14:20:07;60.98;60.00
74420;DHT22;62855;50.718;-2.460;2023-04-29T14:23:06;61.16;60.00
74420;DHT22;62855;50.718;-2.460;2023-04-29T14:26:06;60.98;60.00
74420;DHT22;62855;50.718;-2.460;2023-04-29T14:29:05;60.98;60.00
74420;DHT22;62855;50.718;-2.460;2023-04-29T14:32:05;60.98;60.00
74420;DHT22;62855;50.718;-2.460;2023-04-29T14:35:06;60.98;60.00
74420;DHT22;62855;50.718;-2.460;2023-04-29T14:38:06;60.98;60.00
74420;DHT22;62855;50.718;-2.460;2023-04-29T14:41:06;60.80;60.00
74420;DHT22;62855;50.718;-2.460;2023-04-29T14:44:05;60.80;60.00
74420;DHT22;62855;50.718;-2.460;2023-04-29T14:47:06;60.62;60.00
74420;DHT22;62855;50.718;-2.460;2023-04-29T14:50:07;60.44;60.00
74420;DHT22;62855;50.718;-2.460;2023-04-29T14:53:06;60.44;61.00
74420;DHT22;62855;50.718;-2.460;2023-04-29T14:56:06;60.26;61.00
74420;DHT22;62855;50.718;-2.460;2023-04-29T14:59:05;60.26;61.00
74420;DHT22;62855;50.718;-2.460;2023-04-29T15:02:06;60.08;61.00
74420;DHT22;62855;50.718;-2.460;2023-04-29T15:05:06;59.90;61.00
74420;DHT22;62855;50.718;-2.460;2023-04-29T15:08:06;59.72;61.00
74420;DHT22;62855;50.718;-2.460;2023-04-29T15:11:05;59.36;62.00
74420;DHT22;62855;50.718;-2.460;2023-04-29T15:14:06;59.18;62.00
74420;DHT22;62855;50.718;-2.460;2023-04-29T15:17:06;59.18;62.00
74420;DHT22;62855;50.718;-2.460;2023-04-29T15:20:07;59.18;62.00
74420;DHT22;62855;50.718;-2.460;2023-04-29T15:23:06;58.82;61.00
74420;DHT22;62855;50.718;-2.460;2023-04-29T15:26:06;58.64;61.00
74420;DHT22;62855;50.718;-2.460;2023-04-29T15:29:06;58.46;62.00
74420;DHT22;62855;50.718;-2.460;2023-04-29T15:32:06;58.46;62.00
74420;DHT22;62855;50.718;-2.460;2023-04-29T15:35:06;58.46;62.00
74420;DHT22;62855;50.718;-2.460;2023-04-29T15:38:05;58.10;62.00
74420;DHT22;62855;50.718;-2.460;2023-04-29T15:41:06;57.92;62.00
74420;DHT22;62855;50.718;-2.460;2023-04-29T15:44:06;57.74;62.00
74420;DHT22;62855;50.718;-2.460;2023-04-29T15:47:06;57.56;62.00
74420;DHT22;62855;50.718;-2.460;2023-04-29T15:50:07;57.38;63.00
74420;DHT22;62855;50.718;-2.460;2023-04-29T15:53:05;57.38;63.00
74420;DHT22;62855;50.718;-2.460;2023-04-29T15:56:05;57.20;63.00
74420;DHT22;62855;50.718;-2.460;2023-04-29T15:59:06;57.02;63.00
74420;DHT22;62855;50.718;-2.460;2023-04-29T16:02:06;57.02;63.00
74420;DHT22;62855;50.718;-2.460;2023-04-29T16:05:06;57.02;63.00
74420;DHT22;62855;50.718;-2.460;2023-04-29T16:08:05;56.66;63.00
74420;DHT22;62855;50.718;-2.460;2023-04-29T16:11:06;56.66;64.00
74420;DHT22;62855;50.718;-2.460;2023-04-29T16:14:06;56.66;64.00
74420;DHT22;62855;50.718;-2.460;2023-04-29T16:17:06;56.84;65.00
74420;DHT22;62855;50.718;-2.460;2023-04-29T16:20:07;56.84;64.00
74420;DHT22;62855;50.718;-2.460;2023-04-29T16:23:05;57.02;64.00
74420;DHT22;62855;50.718;-2.460;2023-04-29T16:26:06;57.02;64.00
74420;DHT22;62855;50.718;-2.460;2023-04-29T16:29:06;56.84;63.00
74420;DHT22;62855;50.718;-2.460;2023-04-29T16:32:06;56.66;63.00
74420;DHT22;62855;50.718;-2.460;2023-04-29T16:35:06;56.48;64.00
74420;DHT22;62855;50.718;-2.460;2023-04-29T16:38:06;56.30;63.00
74420;DHT22;62855;50.718;-2.460;2023-04-29T16:41:06;55.94;63.00
74420;DHT22;62855;50.718;-2.460;2023-04-29T16:44:06;55.58;64.00
74420;DHT22;62855;50.718;-2.460;2023-04-29T16:47:06;55.58;64.00
74420;DHT22;62855;50.718;-2.460;2023-04-29T16:50:07;55.76;65.00
74420;DHT22;62855;50.718;-2.460;2023-04-29T16:53:06;55.76;65.00
74420;DHT22;62855;50.718;-2.460;2023-04-29T16:56:06;55.76;65.00
74420;DHT22;62855;50.718;-2.460;2023-04-29T16:59:06;56.12;65.00
74420;DHT22;62855;50.718;-2.460;2023-04-29T17:02:05;56.30;65.00
74420;DHT22;62855;50.718;-2.460;2023-04-29T17:05:07;56.48;65.00
74420;DHT22;62855;50.718;-2.460;2023-04-29T17:08:06;56.48;64.00
74420;DHT22;62855;50.718;-2.460;2023-04-29T17:11:06;56.66;65.00
74420;DHT22;62855;50.718;-2.460;2023-04-29T17:14:06;56.84;65.00
74420;DHT22;62855;50.718;-2.460;2023-04-29T17:17:06;56.84;64.00
74420;DHT22;62855;50.718;-2.460;2023-04-29T17:20:07;56.84;64.00
74420;DHT22;62855;50.718;-2.460;2023-04-29T17:23:06;56.84;64.00
74420;DHT22;62855;50.718;-2.460;2023-04-29T17:26:06;56.84;64.00
74420;DHT22;62855;50.718;-2.460;2023-04-29T17:29:06;56.66;64.00
74420;DHT22;62855;50.718;-2.460;2023-04-29T17:32:06;56.30;64.00
74420;DHT22;62855;50.718;-2.460;2023-04-29T17:35:07;56.30;64.00
74420;DHT22;62855;50.718;-2.460;2023-04-29T17:38:06;56.12;64.00
74420;DHT22;62855;50.718;-2.460;2023-04-29T17:41:06;55.76;64.00
74420;DHT22;62855;50.718;-2.460;2023-04-29T17:44:05;55.40;65.00
74420;DHT22;62855;50.718;-2.460;2023-04-29T17:47:06;55.22;65.00
74420;DHT22;62855;50.718;-2.460;2023-04-29T17:50:06;55.04;65.00
74420;DHT22;62855;50.718;-2.460;2023-04-29T17:53:06;54.68;66.00
74420;DHT22;62855;50.718;-2.460;2023-04-29T17:56:06;54.50;66.00
74420;DHT22;62855;50.718;-2.460;2023-04-29T17:59:06;54.32;67.00
74420;DHT22;62855;50.718;-2.460;2023-04-29T18:02:06;54.32;67.00
74420;DHT22;62855;50.718;-2.460;2023-04-29T18:05:07;54.32;68.00
74420;DHT22;62855;50.718;-2.460;2023-04-29T18:08:06;54.50;68.00
74420;DHT22;62855;50.718;-2.460;2023-04-29T18:11:06;54.50;68.00
74420;DHT22;62855;50.718;-2.460;2023-04-29T18:14:06;54.32;68.00
74420;DHT22;62855;50.718;-2.460;2023-04-29T18:17:06;54.32;68.00
74420;DHT22;62855;50.718;-2.460;2023-04-29T18:20:07;53.96;68.00
74420;DHT22;62855;50.718;-2.460;2023-04-29T18:23:06;53.96;68.00
74420;DHT22;62855;50.718;-2.460;2023-04-29T18:26:05;53.96;68.00
74420;DHT22;62855;50.718;-2.460;2023-04-29T18:29:06;53.78;68.00
74420;DHT22;62855;50.718;-2.460;2023-04-29T18:32:06;53.42;68.00
74420;DHT22;62855;50.718;-2.460;2023-04-29T18:35:06;53.24;71.00
74420;DHT22;62855;50.718;-2.460;2023-04-29T18:38:06;53.06;71.00
74420;DHT22;62855;50.718;-2.460;2023-04-29T18:41:06;52.88;71.00
74420;DHT22;62855;50.718;-2.460;2023-04-29T18:44:06;52.52;72.00